Time;durP1;ratioP1;P1;durP2;ratioP2;P2;SDS_P1;SDS_P2;PMS_P1;PMS_P2;Temp;Humidity;BMP_temperature;BMP_pressure;BME280_temperature;BME280_humidity;BME280_pressure;Samples;Min_cycle;Max_cycle;Signal;HPM_P1;HPM_P2
2021/12/02 00:02:04;;;;;;;6.28;2.58;;;;;;;;;;6235677;28;20030;-88
2021/12/02 00:05:04;;;;;;;7.80;3.83;;;;;;;;;;6238908;28;20060;-88
2021/12/02 00:08:05;;;;;;;9.10;4.72;;;;;;;;;;6235602;28;20034;-88
2021/12/02 00:11:05;;;;;;;10.73;5.68;;;;;;;;;;6237742;28;20021;-87
2021/12/02 00:14:10;;;;;;;7.32;3.55;;;;;;;;;;6236433;28;20135;-89
2021/12/02 00:17:33;;;;;;;12.40;3.58;;;;;;;;;;6237178;28;20056;-88
2021/12/02 00:23:59;;;;;;;9.60;5.05;;;;;;;;;;6236614;28;20482;-88
2021/12/02 00:27:00;;;;;;;5.03;2.20;;;;;;;;;;6230725;28;20034;-88
2021/12/02 00:30:02;;;;;;;5.38;2.92;;;;;;;;;;6231933;28;20040;-88
2021/12/02 00:33:02;;;;;;;3.78;2.25;;;;;;;;;;6235553;28;20034;-88
2021/12/02 00:36:04;;;;;;;4.78;2.92;;;;;;;;;;6231120;28;20037;-87
2021/12/02 00:39:12;;;;;;;7.72;2.70;;;;;;;;;;6234002;28;20028;-88
2021/12/02 00:42:13;;;;;;;3.95;2.95;;;;;;;;;;6251525;28;20049;-87
2021/12/02 00:45:13;;;;;;;8.18;2.90;;;;;;;;;;6229649;28;20416;-87
2021/12/02 00:48:14;;;;;;;6.95;3.13;;;;;;;;;;6233555;28;20022;-88
2021/12/02 00:51:15;;;;;;;4.88;3.33;;;;;;;;;;6233591;28;20060;-87
2021/12/02 00:54:15;;;;;;;7.05;2.58;;;;;;;;;;6249672;28;20022;-88
2021/12/02 00:57:16;;;;;;;5.47;3.00;;;;;;;;;;6236347;28;20471;-88
2021/12/02 01:00:16;;;;;;;3.85;2.65;;;;;;;;;;6231645;28;20022;-88
2021/12/02 01:03:17;;;;;;;4.47;2.05;;;;;;;;;;6234041;28;20037;-88
2021/12/02 01:06:18;;;;;;;5.72;3.25;;;;;;;;;;6235800;28;20482;-87
2021/12/02 01:09:18;;;;;;;4.63;2.95;;;;;;;;;;6237556;28;20034;-88
2021/12/02 01:12:19;;;;;;;7.53;3.55;;;;;;;;;;6236463;28;20485;-88
2021/12/02 01:15:19;;;;;;;7.15;3.33;;;;;;;;;;6238165;28;20051;-88
2021/12/02 01:18:20;;;;;;;6.55;4.35;;;;;;;;;;6236851;28;20387;-88
2021/12/02 01:21:22;;;;;;;6.30;3.20;;;;;;;;;;6232492;28;20548;-88
2021/12/02 01:24:23;;;;;;;5.80;3.63;;;;;;;;;;6236739;28;20036;-88
2021/12/02 01:27:23;;;;;;;6.68;3.28;;;;;;;;;;6232467;28;20042;-88
2021/12/02 01:30:27;;;;;;;7.18;3.33;;;;;;;;;;6234161;28;20111;-88
2021/12/02 01:33:28;;;;;;;5.03;3.17;;;;;;;;;;6225468;28;20057;-88
2021/12/02 01:36:41;;;;;;;6.13;2.45;;;;;;;;;;6231811;28;20659;-88
2021/12/02 01:39:41;;;;;;;5.97;3.35;;;;;;;;;;6233324;28;20603;-87
2021/12/02 01:42:45;;;;;;;7.93;3.30;;;;;;;;;;6231862;28;20018;-88
2021/12/02 01:45:45;;;;;;;5.82;2.90;;;;;;;;;;6236762;28;20089;-87
2021/12/02 01:48:57;;;;;;;4.40;2.78;;;;;;;;;;6235930;28;20038;-88
2021/12/02 01:51:59;;;;;;;7.53;3.53;;;;;;;;;;6234083;28;20263;-88
2021/12/02 01:55:09;;;;;;;7.03;3.00;;;;;;;;;;6234558;28;20029;-88
2021/12/02 01:58:14;;;;;;;5.80;2.78;;;;;;;;;;6235774;28;20033;-88
2021/12/02 02:01:25;;;;;;;10.88;3.30;;;;;;;;;;6236232;28;20030;-87
2021/12/02 02:04:25;;;;;;;6.10;2.95;;;;;;;;;;6235931;28;20490;-87
2021/12/02 02:07:26;;;;;;;7.50;3.35;;;;;;;;;;6235678;28;20028;-88
2021/12/02 02:10:27;;;;;;;4.88;2.60;;;;;;;;;;6237154;28;20418;-88
2021/12/02 02:13:28;;;;;;;6.07;2.80;;;;;;;;;;6233903;28;20076;-87
2021/12/02 02:16:28;;;;;;;4.32;2.40;;;;;;;;;;6231801;28;20468;-88
2021/12/02 02:19:30;;;;;;;7.50;4.25;;;;;;;;;;6234690;28;20033;-87
2021/12/02 02:22:30;;;;;;;6.25;2.70;;;;;;;;;;6234733;28;20071;-87
2021/12/02 02:25:31;;;;;;;3.83;2.65;;;;;;;;;;6235572;28;20553;-87
2021/12/02 02:28:32;;;;;;;3.75;2.47;;;;;;;;;;6234782;28;20062;-88
2021/12/02 02:31:33;;;;;;;7.07;2.95;;;;;;;;;;6251977;28;20025;-88
2021/12/02 02:34:33;;;;;;;10.20;2.83;;;;;;;;;;6236682;28;20045;-88
2021/12/02 02:37:36;;;;;;;8.35;3.13;;;;;;;;;;6234975;28;20021;-88
2021/12/02 02:40:39;;;;;;;5.35;2.55;;;;;;;;;;6232642;28;20055;-88
2021/12/02 02:43:45;;;;;;;5.70;1.88;;;;;;;;;;6234155;28;20436;-88
2021/12/02 02:46:46;;;;;;;3.42;1.77;;;;;;;;;;6234301;28;20025;-88
2021/12/02 02:49:47;;;;;;;4.13;2.20;;;;;;;;;;6237091;28;20091;-88
2021/12/02 02:52:48;;;;;;;2.25;1.67;;;;;;;;;;6232729;28;20425;-88
2021/12/02 02:56:09;;;;;;;5.35;2.22;;;;;;;;;;6252645;28;20029;-88
2021/12/02 02:59:22;;;;;;;2.50;1.85;;;;;;;;;;6235826;28;20061;-87
2021/12/02 03:02:30;;;;;;;2.83;1.92;;;;;;;;;;6235084;28;20029;-87
2021/12/02 03:05:49;;;;;;;4.38;3.45;;;;;;;;;;6236091;28;20014;-88
2021/12/02 03:08:54;;;;;;;6.57;2.55;;;;;;;;;;6235193;28;20492;-87
2021/12/02 03:11:58;;;;;;;5.93;2.22;;;;;;;;;;6234847;28;20021;-88
2021/12/02 03:18:02;;;;;;;3.17;1.80;;;;;;;;;;6237520;28;20168;-88
2021/12/02 03:21:02;;;;;;;6.28;2.30;;;;;;;;;;6237143;28;20021;-87
2021/12/02 03:24:03;;;;;;;4.03;2.17;;;;;;;;;;6237524;28;20337;-88
2021/12/02 03:27:04;;;;;;;2.08;1.00;;;;;;;;;;6234760;28;20028;-87
2021/12/02 03:30:06;;;;;;;2.22;1.35;;;;;;;;;;6237134;28;20816;-87
2021/12/02 03:33:07;;;;;;;2.80;1.75;;;;;;;;;;6235493;28;20402;-87
2021/12/02 03:36:08;;;;;;;3.13;1.50;;;;;;;;;;6239842;28;20489;-88
2021/12/02 03:39:10;;;;;;;5.15;1.98;;;;;;;;;;6239231;28;20022;-88
2021/12/02 03:42:10;;;;;;;;;;;;;;;;;;6239896;28;20482;-88
2021/12/02 03:45:10;;;;;;;4.68;1.70;;;;;;;;;;6235896;28;20361;-88
2021/12/02 03:48:11;;;;;;;2.28;1.65;;;;;;;;;;6235522;28;20030;-88
2021/12/02 03:51:11;;;;;;;4.88;1.45;;;;;;;;;;6235141;28;20058;-88
2021/12/02 03:54:11;;;;;;;3.60;2.72;;;;;;;;;;6239637;28;20425;-88
2021/12/02 03:57:12;;;;;;;3.60;1.70;;;;;;;;;;6241190;28;20377;-88
2021/12/02 04:00:12;;;;;;;8.02;2.33;;;;;;;;;;6240592;28;20072;-88
2021/12/02 04:03:13;;;;;;;6.95;3.10;;;;;;;;;;6240176;28;20465;-88
2021/12/02 04:06:14;;;;;;;5.03;2.10;;;;;;;;;;6239413;28;20030;-88
2021/12/02 04:09:19;;;;;;;2.65;2.45;;;;;;;;;;6238700;28;20048;-88
2021/12/02 04:12:27;;;;;;;4.18;2.30;;;;;;;;;;6236373;28;20018;-88
2021/12/02 04:15:34;;;;;;;3.63;2.17;;;;;;;;;;6236563;28;20493;-88
2021/12/02 04:18:34;;;;;;;5.47;1.92;;;;;;;;;;6240936;28;20330;-87
2021/12/02 04:21:35;;;;;;;4.00;2.08;;;;;;;;;;6236743;28;20029;-88
2021/12/02 04:24:35;;;;;;;2.97;1.38;;;;;;;;;;6240243;28;20032;-88
2021/12/02 04:27:35;;;;;;;3.38;1.92;;;;;;;;;;6238370;28;20029;-88
2021/12/02 04:30:36;;;;;;;3.03;2.00;;;;;;;;;;6237420;28;20032;-88
2021/12/02 04:33:36;;;;;;;3.65;1.88;;;;;;;;;;6236341;28;20036;-88
2021/12/02 04:36:37;;;;;;;4.35;1.88;;;;;;;;;;6233975;28;20072;-87
2021/12/02 04:39:37;;;;;;;5.63;2.15;;;;;;;;;;6237932;28;20032;-88
2021/12/02 04:42:37;;;;;;;7.72;2.70;;;;;;;;;;6236993;28;20382;-88
2021/12/02 04:45:37;;;;;;;2.78;1.38;;;;;;;;;;6239612;28;20013;-88
2021/12/02 04:48:38;;;;;;;9.20;2.72;;;;;;;;;;6237036;28;20045;-88
2021/12/02 04:51:38;;;;;;;4.95;2.10;;;;;;;;;;6234398;28;20018;-88
2021/12/02 04:54:38;;;;;;;4.57;2.33;;;;;;;;;;6237159;28;20628;-88
2021/12/02 04:57:39;;;;;;;5.22;2.75;;;;;;;;;;6239429;28;20074;-87
2021/12/02 05:00:39;;;;;;;7.03;2.88;;;;;;;;;;6236195;28;20140;-88
2021/12/02 05:03:39;;;;;;;5.20;2.45;;;;;;;;;;6237661;28;20018;-87
2021/12/02 05:06:39;;;;;;;4.82;2.47;;;;;;;;;;6236599;28;20045;-88
2021/12/02 05:09:40;;;;;;;8.13;3.15;;;;;;;;;;6231634;28;20108;-88
2021/12/02 05:12:40;;;;;;;11.68;3.95;;;;;;;;;;6236953;28;20025;-88
2021/12/02 05:15:40;;;;;;;4.53;2.03;;;;;;;;;;6235052;28;20115;-88
2021/12/02 05:18:41;;;;;;;3.55;2.10;;;;;;;;;;6236435;28;20389;-87
2021/12/02 05:21:41;;;;;;;5.93;2.85;;;;;;;;;;6234931;28;20451;-88
2021/12/02 05:24:41;;;;;;;3.55;1.80;;;;;;;;;;6237041;28;20432;-88
2021/12/02 05:27:42;;;;;;;8.00;3.25;;;;;;;;;;6238168;28;20021;-88
2021/12/02 05:30:42;;;;;;;10.32;5.07;;;;;;;;;;6237537;28;20036;-88
2021/12/02 05:33:42;;;;;;;13.73;5.07;;;;;;;;;;6227904;28;20406;-87
2021/12/02 05:36:42;;;;;;;14.48;5.45;;;;;;;;;;6235220;28;20022;-87
2021/12/02 05:39:43;;;;;;;9.18;3.80;;;;;;;;;;6232398;28;20086;-88
2021/12/02 05:42:43;;;;;;;11.93;2.97;;;;;;;;;;6237533;28;20023;-88
2021/12/02 05:45:44;;;;;;;10.50;4.00;;;;;;;;;;6232270;28;20087;-88
2021/12/02 05:48:44;;;;;;;6.88;3.50;;;;;;;;;;6230975;28;20041;-88
2021/12/02 05:51:45;;;;;;;22.77;5.43;;;;;;;;;;6230822;28;20113;-88
2021/12/02 05:54:45;;;;;;;7.57;2.97;;;;;;;;;;6224424;28;20040;-88
2021/12/02 05:57:45;;;;;;;13.77;3.03;;;;;;;;;;6235413;28;20029;-88
2021/12/02 06:00:46;;;;;;;5.88;3.00;;;;;;;;;;6233280;28;20256;-88
2021/12/02 06:03:46;;;;;;;6.80;3.78;;;;;;;;;;6236495;28;20097;-88
2021/12/02 06:06:46;;;;;;;6.85;2.75;;;;;;;;;;6228698;28;20036;-88
2021/12/02 06:09:47;;;;;;;6.22;3.42;;;;;;;;;;6231486;28;20033;-88
2021/12/02 06:12:47;;;;;;;9.75;4.03;;;;;;;;;;6233791;28;20080;-87
2021/12/02 06:15:48;;;;;;;11.82;6.13;;;;;;;;;;6228617;28;20033;-87
2021/12/02 06:18:48;;;;;;;12.52;6.65;;;;;;;;;;6232915;28;20053;-87
2021/12/02 06:21:50;;;;;;;6.97;2.67;;;;;;;;;;6233488;28;20017;-88
2021/12/02 06:28:06;;;;;;;3.25;1.92;;;;;;;;;;6236954;28;19920;-88
2021/12/02 06:31:06;;;;;;;8.93;2.78;;;;;;;;;;6239230;28;20021;-87
2021/12/02 06:34:07;;;;;;;7.03;3.05;;;;;;;;;;6238582;28;20029;-88
2021/12/02 06:37:07;;;;;;;4.13;2.13;;;;;;;;;;6236420;28;20018;-87
2021/12/02 06:40:08;;;;;;;7.35;2.45;;;;;;;;;;6236801;28;20021;-87
2021/12/02 06:43:09;;;;;;;6.88;3.28;;;;;;;;;;6233079;28;20448;-88
2021/12/02 06:46:10;;;;;;;7.43;2.75;;;;;;;;;;6238031;28;20025;-88
2021/12/02 06:49:10;;;;;;;10.90;3.80;;;;;;;;;;6236319;28;20050;-87
2021/12/02 06:52:12;;;;;;;6.50;2.75;;;;;;;;;;6232498;28;20033;-88
2021/12/02 06:55:12;;;;;;;7.03;2.85;;;;;;;;;;6236910;28;20032;-88
2021/12/02 06:58:13;;;;;;;9.60;2.80;;;;;;;;;;6238627;28;20026;-88
2021/12/02 07:01:13;;;;;;;9.32;2.60;;;;;;;;;;6235678;28;20498;-88
2021/12/02 07:04:13;;;;;;;6.95;2.78;;;;;;;;;;6239268;28;20009;-88
2021/12/02 07:07:14;;;;;;;5.07;2.53;;;;;;;;;;6235098;28;20389;-87
2021/12/02 07:10:17;;;;;;;14.50;5.05;;;;;;;;;;6233405;28;20083;-88
2021/12/02 07:13:17;;;;;;;9.93;4.10;;;;;;;;;;6232355;28;20130;-87
2021/12/02 07:16:20;;;;;;;8.38;2.22;;;;;;;;;;6233170;28;20018;-88
2021/12/02 07:19:20;;;;;;;7.70;3.78;;;;;;;;;;6234170;28;20026;-87
2021/12/02 07:22:20;;;;;;;9.07;3.13;;;;;;;;;;6237470;28;20018;-87
2021/12/02 07:25:20;;;;;;;6.43;2.78;;;;;;;;;;6234975;28;20030;-88
2021/12/02 07:28:21;;;;;;;5.00;2.50;;;;;;;;;;6237038;28;20029;-87
2021/12/02 07:31:21;;;;;;;4.05;2.42;;;;;;;;;;6238560;28;20041;-89
2021/12/02 07:34:23;;;;;;;5.93;2.63;;;;;;;;;;6238624;28;20026;-87
2021/12/02 07:37:23;;;;;;;9.35;3.83;;;;;;;;;;6235600;28;20101;-87
2021/12/02 07:40:25;;;;;;;8.45;3.97;;;;;;;;;;6235089;28;20030;-88
2021/12/02 07:43:26;;;;;;;10.03;4.03;;;;;;;;;;6232287;28;20022;-88
2021/12/02 07:46:26;;;;;;;8.90;3.97;;;;;;;;;;6236640;28;20024;-88
2021/12/02 07:49:26;;;;;;;8.25;3.88;;;;;;;;;;6238364;28;20153;-87
2021/12/02 07:52:26;;;;;;;11.10;5.13;;;;;;;;;;6232811;28;20079;-87
2021/12/02 07:55:28;;;;;;;8.55;4.53;;;;;;;;;;6234113;28;20029;-88
2021/12/02 07:58:28;;;;;;;7.95;3.97;;;;;;;;;;6238273;28;20025;-88
2021/12/02 08:01:29;;;;;;;7.90;3.45;;;;;;;;;;6238948;28;20022;-86
2021/12/02 08:04:29;;;;;;;8.85;4.47;;;;;;;;;;6237761;28;20018;-86
2021/12/02 08:07:30;;;;;;;11.63;4.07;;;;;;;;;;6236516;28;20029;-87
2021/12/02 08:10:30;;;;;;;10.48;3.78;;;;;;;;;;6235383;28;20014;-86
2021/12/02 08:13:31;;;;;;;9.00;3.95;;;;;;;;;;6235614;28;20032;-87
2021/12/02 08:16:31;;;;;;;7.30;4.47;;;;;;;;;;6237273;28;20144;-86
2021/12/02 08:19:31;;;;;;;6.70;2.30;;;;;;;;;;6238612;28;20026;-87
2021/12/02 08:22:32;;;;;;;10.25;4.20;;;;;;;;;;6233912;28;20696;-87
2021/12/02 08:25:32;;;;;;;9.68;3.97;;;;;;;;;;6236713;28;20018;-86
2021/12/02 08:28:33;;;;;;;5.88;3.20;;;;;;;;;;6239662;28;20021;-86
2021/12/02 08:31:33;;;;;;;9.55;4.32;;;;;;;;;;6238288;28;20444;-86
2021/12/02 08:34:34;;;;;;;9.20;4.57;;;;;;;;;;6235650;28;20013;-86
2021/12/02 08:37:37;;;;;;;5.03;2.72;;;;;;;;;;6238822;28;20105;-86
2021/12/02 08:40:39;;;;;;;9.25;3.28;;;;;;;;;;6236014;28;20442;-86
2021/12/02 08:43:39;;;;;;;8.82;3.97;;;;;;;;;;6240339;28;20155;-87
2021/12/02 08:46:40;;;;;;;8.23;4.20;;;;;;;;;;6239493;28;20025;-87
2021/12/02 08:49:40;;;;;;;9.57;3.92;;;;;;;;;;6238448;28;20065;-86
2021/12/02 08:52:41;;;;;;;3.13;2.40;;;;;;;;;;6239106;28;20048;-86
2021/12/02 08:55:43;;;;;;;9.25;3.00;;;;;;;;;;6236998;28;20464;-86
2021/12/02 08:58:43;;;;;;;11.65;3.92;;;;;;;;;;6241445;28;20021;-87
2021/12/02 09:01:43;;;;;;;8.30;3.65;;;;;;;;;;6235442;28;20033;-86
2021/12/02 09:04:44;;;;;;;8.77;3.15;;;;;;;;;;6233940;28;20022;-86
2021/12/02 09:07:44;;;;;;;5.55;2.88;;;;;;;;;;6233355;28;20018;-87
2021/12/02 09:10:44;;;;;;;9.38;3.65;;;;;;;;;;6235643;28;20511;-87
2021/12/02 09:13:45;;;;;;;7.32;3.70;;;;;;;;;;6237737;28;20052;-87
2021/12/02 09:16:45;;;;;;;10.35;3.88;;;;;;;;;;6236799;28;20110;-86
2021/12/02 09:19:45;;;;;;;10.23;3.72;;;;;;;;;;6237296;28;20182;-87
2021/12/02 09:22:46;;;;;;;10.52;4.45;;;;;;;;;;6237558;28;20525;-86
2021/12/02 09:25:46;;;;;;;8.93;3.75;;;;;;;;;;6237409;28;20361;-86
2021/12/02 09:28:52;;;;;;;10.05;3.63;;;;;;;;;;6237719;28;20032;-86
2021/12/02 09:31:53;;;;;;;8.98;3.22;;;;;;;;;;6236592;28;20029;-86
2021/12/02 09:34:53;;;;;;;7.85;4.45;;;;;;;;;;6236814;28;20048;-86
2021/12/02 09:37:53;;;;;;;9.48;3.67;;;;;;;;;;6239814;28;20029;-87
2021/12/02 09:40:54;;;;;;;6.13;2.92;;;;;;;;;;6232315;28;20020;-86
2021/12/02 09:43:54;;;;;;;7.65;3.35;;;;;;;;;;6233305;28;20096;-86
2021/12/02 09:46:55;;;;;;;9.95;3.78;;;;;;;;;;6233030;28;20069;-86
2021/12/02 09:49:57;;;;;;;7.75;3.38;;;;;;;;;;6233593;28;20047;-87
2021/12/02 09:53:06;;;;;;;11.73;5.07;;;;;;;;;;6239120;28;20120;-86
2021/12/02 09:59:11;;;;;;;7.90;4.07;;;;;;;;;;6232873;28;20060;-86
2021/12/02 10:02:14;;;;;;;4.20;2.38;;;;;;;;;;6247523;28;20028;-86
2021/12/02 10:05:24;;;;;;;7.93;3.35;;;;;;;;;;6231868;28;20045;-86
2021/12/02 10:08:29;;;;;;;9.50;3.88;;;;;;;;;;6230585;28;20035;-86
2021/12/02 10:11:41;;;;;;;6.70;2.65;;;;;;;;;;6232847;28;20088;-86
2021/12/02 10:14:48;;;;;;;12.50;4.03;;;;;;;;;;6231193;28;20034;-86
2021/12/02 10:17:51;;;;;;;10.77;5.13;;;;;;;;;;6234309;28;20050;-86
2021/12/02 10:20:52;;;;;;;12.52;5.82;;;;;;;;;;6234992;28;20149;-86
2021/12/02 10:23:53;;;;;;;9.38;2.88;;;;;;;;;;6237253;28;20495;-86
2021/12/02 10:27:04;;;;;;;7.05;3.50;;;;;;;;;;6249059;28;20158;-87
2021/12/02 10:30:23;;;;;;;3.38;2.03;;;;;;;;;;6236900;28;20075;-87
2021/12/02 10:33:37;;;;;;;8.57;3.72;;;;;;;;;;6251971;28;20033;-87
2021/12/02 10:36:45;;;;;;;11.10;3.88;;;;;;;;;;6231466;28;20059;-86
2021/12/02 10:40:03;;;;;;;14.93;4.93;;;;;;;;;;6236611;28;20097;-87
2021/12/02 10:43:08;;;;;;;20.65;7.55;;;;;;;;;;6234155;28;20437;-87
2021/12/02 10:46:12;;;;;;;17.75;6.00;;;;;;;;;;6235524;28;20033;-86
2021/12/02 10:49:15;;;;;;;14.30;6.38;;;;;;;;;;6231374;28;20069;-87
2021/12/02 10:52:17;;;;;;;14.73;4.95;;;;;;;;;;6235125;28;20022;-86
2021/12/02 10:55:21;;;;;;;9.82;2.67;;;;;;;;;;6236036;28;20033;-87
2021/12/02 10:58:30;;;;;;;8.40;2.95;;;;;;;;;;6235426;28;20033;-87
2021/12/02 11:01:37;;;;;;;13.25;3.83;;;;;;;;;;6234996;28;20013;-87
2021/12/02 11:04:39;;;;;;;8.35;3.45;;;;;;;;;;6236905;28;20029;-87
2021/12/02 11:07:40;;;;;;;11.23;3.75;;;;;;;;;;6236901;28;20029;-86
2021/12/02 11:10:42;;;;;;;7.50;2.45;;;;;;;;;;6232143;28;20134;-87
2021/12/02 11:13:48;;;;;;;8.63;2.83;;;;;;;;;;6238591;28;20071;-87
2021/12/02 11:16:48;;;;;;;8.70;4.20;;;;;;;;;;6234088;28;20030;-86
2021/12/02 11:19:49;;;;;;;7.95;3.95;;;;;;;;;;6237800;28;20028;-87
2021/12/02 11:22:55;;;;;;;7.75;2.70;;;;;;;;;;6237094;28;20492;-87
2021/12/02 11:26:02;;;;;;;8.75;3.92;;;;;;;;;;6251529;28;20411;-87
2021/12/02 11:29:02;;;;;;;5.32;2.30;;;;;;;;;;6233951;28;20032;-87
2021/12/02 11:32:02;;;;;;;6.50;3.38;;;;;;;;;;6230206;28;20025;-87
2021/12/02 11:35:03;;;;;;;4.88;2.15;;;;;;;;;;6242151;28;20147;-86
2021/12/02 11:38:08;;;;;;;11.00;3.40;;;;;;;;;;6242758;28;20021;-86
2021/12/02 11:41:08;;;;;;;9.88;3.83;;;;;;;;;;6251072;28;20670;-86
2021/12/02 11:44:08;;;;;;;6.07;3.10;;;;;;;;;;6254483;28;20021;-88
2021/12/02 11:47:09;;;;;;;5.28;2.17;;;;;;;;;;6239112;28;20451;-87
2021/12/02 11:50:11;;;;;;;4.28;2.20;;;;;;;;;;6238742;28;20053;-87
2021/12/02 11:53:14;;;;;;;4.05;2.65;;;;;;;;;;6238310;28;20026;-86
2021/12/02 11:56:16;;;;;;;9.95;4.20;;;;;;;;;;6238782;28;20563;-86
2021/12/02 11:59:17;;;;;;;8.93;3.72;;;;;;;;;;6237700;28;20043;-87
2021/12/02 12:02:18;;;;;;;5.50;2.70;;;;;;;;;;6238808;28;20451;-87
2021/12/02 12:05:21;;;;;;;9.00;3.38;;;;;;;;;;6240734;28;20045;-87
2021/12/02 12:08:29;;;;;;;9.93;3.53;;;;;;;;;;6238859;28;20379;-87
2021/12/02 12:11:31;;;;;;;8.82;4.45;;;;;;;;;;6235703;28;20028;-87
2021/12/02 12:14:41;;;;;;;8.38;3.45;;;;;;;;;;6252597;28;20052;-87
2021/12/02 12:17:41;;;;;;;6.28;3.50;;;;;;;;;;6241164;28;20022;-87
2021/12/02 12:20:59;;;;;;;8.98;2.90;;;;;;;;;;6240431;28;20052;-87
2021/12/02 12:24:00;;;;;;;14.40;4.75;;;;;;;;;;6242704;28;20052;-87
2021/12/02 12:27:09;;;;;;;7.87;2.47;;;;;;;;;;6233905;28;20013;-86
2021/12/02 12:30:11;;;;;;;8.35;2.58;;;;;;;;;;6236657;28;20033;-87
2021/12/02 12:33:16;;;;;;;;;;;;;;;;;;6251271;28;20021;-87
2021/12/02 12:36:35;;;;;;;5.03;3.08;;;;;;;;;;6238999;28;19913;-87
2021/12/02 12:39:36;;;;;;;10.35;3.40;;;;;;;;;;6240917;28;20104;-87
2021/12/02 12:42:38;;;;;;;9.30;4.03;;;;;;;;;;6235418;28;20021;-87
2021/12/02 12:45:41;;;;;;;6.93;3.45;;;;;;;;;;6239857;28;20584;-87
2021/12/02 12:48:42;;;;;;;8.90;4.43;;;;;;;;;;6236053;28;20042;-87
2021/12/02 12:51:49;;;;;;;7.38;2.78;;;;;;;;;;6237354;28;20024;-87
2021/12/02 12:55:08;;;;;;;15.27;3.63;;;;;;;;;;6249716;28;20022;-87
2021/12/02 12:58:15;;;;;;;8.35;2.20;;;;;;;;;;6237810;28;20031;-86
2021/12/02 13:01:19;;;;;;;9.80;4.07;;;;;;;;;;6249411;28;20108;-87
2021/12/02 13:04:23;;;;;;;7.05;2.42;;;;;;;;;;6235563;28;20029;-87
2021/12/02 13:07:23;;;;;;;7.70;2.95;;;;;;;;;;6254294;28;20116;-87
2021/12/02 13:10:29;;;;;;;12.45;6.40;;;;;;;;;;6241110;28;20028;-87
2021/12/02 13:13:30;;;;;;;34.60;15.80;;;;;;;;;;6239692;28;20375;-87
2021/12/02 13:16:33;;;;;;;9.45;3.75;;;;;;;;;;6235539;28;20486;-87
2021/12/02 13:19:33;;;;;;;9.07;4.05;;;;;;;;;;6238455;28;20025;-87
2021/12/02 13:22:34;;;;;;;31.33;12.85;;;;;;;;;;6233658;28;20021;-87
2021/12/02 13:25:45;;;;;;;124.88;56.80;;;;;;;;;;6237381;28;20036;-88
2021/12/02 13:28:46;;;;;;;30.05;14.02;;;;;;;;;;6236937;28;20021;-87
2021/12/02 13:31:57;;;;;;;5.80;3.85;;;;;;;;;;6230833;28;20017;-88
2021/12/02 13:34:57;;;;;;;12.35;4.95;;;;;;;;;;6231578;28;20025;-87
2021/12/02 13:38:00;;;;;;;17.90;4.85;;;;;;;;;;6235378;28;20049;-87
2021/12/02 13:41:20;;;;;;;9.38;3.35;;;;;;;;;;6238808;28;20009;-87
2021/12/02 13:44:28;;;;;;;8.73;4.45;;;;;;;;;;6234102;28;20033;-87
2021/12/02 13:47:31;;;;;;;11.90;4.20;;;;;;;;;;6239990;28;20120;-87
2021/12/02 13:50:35;;;;;;;6.75;3.70;;;;;;;;;;6239071;28;20052;-87
2021/12/02 13:53:35;;;;;;;8.57;4.20;;;;;;;;;;6238701;28;20056;-88
2021/12/02 13:56:35;;;;;;;9.68;3.95;;;;;;;;;;6233255;28;20347;-87
2021/12/02 13:59:39;;;;;;;15.40;7.22;;;;;;;;;;6250288;28;20132;-87
2021/12/02 14:02:40;;;;;;;14.15;5.45;;;;;;;;;;6248646;28;20018;-87
2021/12/02 14:05:42;;;;;;;16.27;7.38;;;;;;;;;;6235202;28;20025;-87
2021/12/02 14:08:42;;;;;;;10.02;4.28;;;;;;;;;;6237116;28;20026;-87
2021/12/02 14:11:43;;;;;;;9.68;4.43;;;;;;;;;;6238045;28;20044;-87
2021/12/02 14:14:56;;;;;;;9.73;4.68;;;;;;;;;;6234453;28;20018;-88
2021/12/02 14:18:00;;;;;;;16.88;5.68;;;;;;;;;;6241349;28;20049;-88
2021/12/02 14:21:02;;;;;;;15.77;6.75;;;;;;;;;;6240385;28;20053;-87
2021/12/02 14:24:02;;;;;;;21.50;9.70;;;;;;;;;;6238165;28;20022;-87
2021/12/02 14:27:14;;;;;;;35.10;17.50;;;;;;;;;;6229639;28;20028;-87
2021/12/02 14:30:16;;;;;;;39.17;15.88;;;;;;;;;;6236655;28;20051;-87
2021/12/02 14:33:24;;;;;;;24.60;10.95;;;;;;;;;;6246120;28;20093;-87
2021/12/02 14:36:26;;;;;;;19.10;8.48;;;;;;;;;;6239001;28;20029;-87
2021/12/02 14:39:27;;;;;;;17.25;7.97;;;;;;;;;;6235146;28;20474;-87
2021/12/02 14:42:28;;;;;;;15.18;7.13;;;;;;;;;;6236439;28;20028;-87
2021/12/02 14:45:28;;;;;;;8.10;4.50;;;;;;;;;;6239881;28;20021;-87
2021/12/02 14:48:28;;;;;;;14.27;6.78;;;;;;;;;;6241248;28;20112;-87
2021/12/02 14:51:29;;;;;;;19.13;8.32;;;;;;;;;;6235196;28;20048;-87
2021/12/02 14:54:31;;;;;;;24.50;10.20;;;;;;;;;;6233814;28;20017;-87
2021/12/02 14:57:31;;;;;;;;;;;;;;;;;;6253028;28;20356;-87
2021/12/02 15:00:33;;;;;;;26.40;12.32;;;;;;;;;;6231460;28;20289;-87
2021/12/02 15:03:33;;;;;;;20.38;10.50;;;;;;;;;;6237567;28;20017;-87
2021/12/02 15:06:35;;;;;;;9.00;4.50;;;;;;;;;;6239856;28;20048;-88
2021/12/02 15:09:37;;;;;;;20.42;10.35;;;;;;;;;;6252476;28;20091;-87
2021/12/02 15:12:39;;;;;;;28.88;12.63;;;;;;;;;;6237005;28;20355;-87
2021/12/02 15:15:47;;;;;;;44.13;21.88;;;;;;;;;;6234176;28;20642;-87
2021/12/02 15:18:48;;;;;;;105.65;48.42;;;;;;;;;;6252397;28;20032;-87
2021/12/02 15:21:48;;;;;;;167.53;75.60;;;;;;;;;;6237133;28;20021;-87
2021/12/02 15:24:49;;;;;;;145.68;71.68;;;;;;;;;;6237924;28;20960;-88
2021/12/02 15:27:58;;;;;;;115.40;54.85;;;;;;;;;;6238618;28;20157;-87
2021/12/02 15:30:59;;;;;;;74.50;35.78;;;;;;;;;;6240290;28;20029;-87
2021/12/02 15:34:01;;;;;;;58.90;32.97;;;;;;;;;;6238324;28;20103;-87
2021/12/02 15:37:01;;;;;;;70.28;42.63;;;;;;;;;;6240437;28;20033;-87
2021/12/02 15:40:02;;;;;;;94.15;50.25;;;;;;;;;;6235440;28;20029;-87
2021/12/02 15:43:05;;;;;;;129.90;72.18;;;;;;;;;;6242114;28;20085;-87
2021/12/02 15:46:05;;;;;;;138.60;75.20;;;;;;;;;;6237080;28;20032;-87
2021/12/02 15:49:07;;;;;;;118.10;70.70;;;;;;;;;;6240951;28;20432;-88
2021/12/02 15:52:08;;;;;;;100.00;55.55;;;;;;;;;;6236420;28;20155;-87
2021/12/02 15:55:09;;;;;;;79.70;39.65;;;;;;;;;;6238559;28;20009;-87
2021/12/02 15:58:09;;;;;;;84.28;39.17;;;;;;;;;;6240851;28;20444;-88
2021/12/02 16:01:11;;;;;;;97.85;45.58;;;;;;;;;;6238885;28;20121;-87
2021/12/02 16:04:21;;;;;;;47.25;22.35;;;;;;;;;;6234416;28;20108;-88
2021/12/02 16:07:35;;;;;;;45.13;19.38;;;;;;;;;;6243109;28;20029;-88
2021/12/02 16:10:54;;;;;;;45.58;19.17;;;;;;;;;;6242761;28;20147;-88
2021/12/02 16:13:54;;;;;;;64.47;31.90;;;;;;;;;;6241713;28;20468;-88
2021/12/02 16:16:55;;;;;;;132.77;73.82;;;;;;;;;;6239266;28;20036;-87
2021/12/02 16:19:55;;;;;;;145.45;69.00;;;;;;;;;;6241372;28;20025;-87
2021/12/02 16:22:56;;;;;;;177.23;93.28;;;;;;;;;;6233092;28;20028;-88
2021/12/02 16:25:57;;;;;;;103.80;51.10;;;;;;;;;;6237374;28;20088;-88
2021/12/02 16:28:57;;;;;;;125.53;62.10;;;;;;;;;;6241250;28;20033;-88
2021/12/02 16:31:57;;;;;;;82.95;36.83;;;;;;;;;;6238754;28;20100;-88
2021/12/02 16:34:58;;;;;;;84.22;38.88;;;;;;;;;;6236804;28;20029;-88
2021/12/02 16:37:58;;;;;;;104.90;58.47;;;;;;;;;;6242379;28;20036;-88
2021/12/02 16:41:00;;;;;;;106.15;57.88;;;;;;;;;;6238775;28;20018;-88
2021/12/02 16:44:00;;;;;;;81.45;41.03;;;;;;;;;;6240738;28;20026;-88
2021/12/02 16:47:01;;;;;;;166.43;90.25;;;;;;;;;;6240115;28;20033;-88
2021/12/02 16:50:03;;;;;;;135.27;82.15;;;;;;;;;;6235583;28;20054;-88
2021/12/02 16:53:04;;;;;;;103.47;59.83;;;;;;;;;;6251781;28;20087;-88
2021/12/02 16:56:05;;;;;;;195.70;95.82;;;;;;;;;;6240639;28;20611;-88
2021/12/02 16:59:05;;;;;;;243.13;113.13;;;;;;;;;;6241330;28;20016;-88
2021/12/02 17:02:05;;;;;;;221.85;111.38;;;;;;;;;;6239517;28;20025;-88
2021/12/02 17:05:07;;;;;;;226.85;114.78;;;;;;;;;;6239026;28;20017;-89
2021/12/02 17:08:07;;;;;;;237.25;112.18;;;;;;;;;;6239122;28;20043;-88
2021/12/02 17:11:07;;;;;;;114.70;56.35;;;;;;;;;;6239527;28;20528;-88
2021/12/02 17:14:09;;;;;;;81.13;37.53;;;;;;;;;;6231283;28;20021;-88
2021/12/02 17:17:12;;;;;;;108.20;53.65;;;;;;;;;;6235896;28;20573;-87
2021/12/02 17:20:12;;;;;;;79.38;37.17;;;;;;;;;;6236759;28;20075;-88
2021/12/02 17:23:14;;;;;;;85.35;42.28;;;;;;;;;;6239594;28;20067;-88
2021/12/02 17:26:15;;;;;;;89.80;43.05;;;;;;;;;;6234357;28;20037;-88
2021/12/02 17:29:16;;;;;;;100.13;43.08;;;;;;;;;;6233705;28;20098;-88
2021/12/02 17:32:17;;;;;;;112.93;57.70;;;;;;;;;;6240474;28;20388;-88
2021/12/02 17:35:17;;;;;;;99.07;42.80;;;;;;;;;;6234325;28;20025;-88
2021/12/02 17:38:18;;;;;;;108.30;48.20;;;;;;;;;;6240008;28;20036;-88
2021/12/02 17:41:19;;;;;;;93.93;44.88;;;;;;;;;;6239088;28;20018;-88
2021/12/02 17:44:20;;;;;;;96.05;42.88;;;;;;;;;;6238193;28;20013;-89
2021/12/02 17:47:22;;;;;;;106.88;51.92;;;;;;;;;;6237029;28;20025;-88
2021/12/02 17:50:25;;;;;;;107.25;50.88;;;;;;;;;;6239119;28;20056;-88
2021/12/02 17:53:28;;;;;;;158.00;64.95;;;;;;;;;;6238374;28;20213;-88
2021/12/02 17:56:29;;;;;;;137.35;65.22;;;;;;;;;;6234252;28;20155;-88
2021/12/02 17:59:29;;;;;;;92.72;46.95;;;;;;;;;;6239599;28;20052;-88
2021/12/02 18:02:29;;;;;;;102.95;45.33;;;;;;;;;;6238848;28;20017;-88
2021/12/02 18:05:30;;;;;;;85.55;37.90;;;;;;;;;;6238578;28;20028;-88
2021/12/02 18:08:30;;;;;;;66.22;30.23;;;;;;;;;;6238444;28;20013;-88
2021/12/02 18:11:31;;;;;;;74.07;33.42;;;;;;;;;;6226651;28;20473;-88
2021/12/02 18:14:31;;;;;;;57.58;27.33;;;;;;;;;;6234630;28;20199;-88
2021/12/02 18:17:32;;;;;;;59.88;23.95;;;;;;;;;;6234575;28;20412;-88